Sardinia Regina — IBMS — position and weather

sailwx.info

Track history (hours):
 
Tides and Currents Weather Stations Pressure Air Temp Water Temp Dewpoint Dewpoint Depression Visibility Wind Speed Wind Dir Waves Ship Positions

Sardinia Regina

Last reported at 2015-Mar-31 07:33 UTC. Time now 2015-Mar-31 08:27 UTC.
Position N 42°59' E 009°38'.

Length 146 m; draft 5 m.

Type: Ship (hazmat cat D). MMSI: 247079000.

Date/timePositionNaut miles runAvg speedWind from/ knotsBaromVisibWave heightAir tempDewpointWater temp
2015-Mar-31 07:33N 42°59' E 009°38'19 3.1
2015-Mar-31 01:11N 43°19' E 009°38'710.9
2015-Mar-31 00:33N 43°25' E 009°38'1111.5
2015-Mar-30 23:33N 43°36' E 009°32'1514.6
2015-Mar-30 22:34N 43°49' E 009°24'1515.0
2015-Mar-30 21:34N 43°58' E 009°06'1515.2
2015-Mar-30 20:34N 44°07' E 008°49'1313.1
2015-Mar-30 19:33N 44°13' E 008°34'5 5.3
2015-Mar-30 18:33N 44°16' E 008°27'0 0.0
2015-Mar-30 17:33N 44°16' E 008°27'0 0.0
2015-Mar-30 16:33N 44°16' E 008°27'0 0.0
2015-Mar-30 15:33N 44°16' E 008°27'0 0.0
2015-Mar-30 14:33N 44°16' E 008°27'0 0.0
2015-Mar-30 13:33N 44°16' E 008°27'0 0.0
2015-Mar-30 12:33N 44°16' E 008°27'0 0.0
2015-Mar-30 11:33N 44°16' E 008°27'0 0.0
2015-Mar-30 10:33N 44°16' E 008°27'0 0.0
2015-Mar-30 09:33N 44°16' E 008°27'0 0.0
2015-Mar-30 08:33N 44°16' E 008°27'0 0.0
2015-Mar-30 07:33N 44°16' E 008°27'0 0.0
2015-Mar-30 06:33N 44°16' E 008°27'0 0.0
2015-Mar-30 05:33N 44°16' E 008°27'0 0.0
2015-Mar-30 04:33N 44°16' E 008°27'0 0.0
2015-Mar-30 03:33N 44°16' E 008°27'0 0.0
2015-Mar-30 02:33N 44°16' E 008°27'0 0.0
2015-Mar-30 01:33N 44°16' E 008°27'0 0.0
2015-Mar-30 00:33N 44°16' E 008°27'0 0.0
2015-Mar-29 23:33N 44°16' E 008°27'0 0.0
2015-Mar-29 22:33N 44°16' E 008°27'0 0.0
2015-Mar-29 21:33N 44°16' E 008°27'0 0.0
2015-Mar-29 20:33N 44°16' E 008°27'0 0.0
2015-Mar-29 19:33N 44°16' E 008°27'0 0.0
2015-Mar-29 18:33N 44°16' E 008°27'0 0.0
2015-Mar-29 17:33N 44°16' E 008°27'10 9.6
2015-Mar-29 16:33N 44°09' E 008°37'1918.8
2015-Mar-29 15:33N 43°53' E 008°50'1818.0
2015-Mar-29 14:33N 43°37' E 009°02'1817.9
2015-Mar-29 13:33N 43°22' E 009°14'1818.0
2015-Mar-29 12:33N 43°06' E 009°26'1818.0
2015-Mar-29 11:32N 42°48' E 009°33'26 0.8
2015-Mar-28 03:33N 43°13' E 009°21'1010.0
2015-Mar-28 02:33N 43°21' E 009°14'10 9.8
2015-Mar-28 01:33N 43°30' E 009°07'1010.0
2015-Mar-28 00:33N 43°39' E 009°00'10 9.6
2015-Mar-27 23:33N 43°47' E 008°54'9 9.3
2015-Mar-27 22:33N 43°55' E 008°47'10 9.7
2015-Mar-27 21:33N 44°03' E 008°41'1110.7
2015-Mar-27 20:33N 44°12' E 008°32'5 5.3
2015-Mar-27 19:33N 44°16' E 008°27'0 0.0
2015-Mar-27 18:33N 44°16' E 008°27'0 0.0
2015-Mar-27 17:28N 44°16' E 008°27'0 0.0
2015-Mar-27 16:28N 44°16' E 008°27'0 0.0
2015-Mar-27 15:28N 44°16' E 008°27'0 0.0
2015-Mar-27 14:28N 44°16' E 008°27'0 0.0
2015-Mar-27 13:22N 44°16' E 008°27'0 0.0
2015-Mar-27 12:28N 44°16' E 008°27'0 0.0
2015-Mar-27 11:31N 44°16' E 008°27'0 0.0
2015-Mar-27 10:31N 44°16' E 008°27'0 0.0
2015-Mar-27 09:28N 44°16' E 008°27'0 0.0
2015-Mar-27 08:28N 44°16' E 008°27'0 0.0
2015-Mar-27 07:33N 44°16' E 008°27'0 0.0
2015-Mar-27 06:33N 44°16' E 008°27'4 4.3
2015-Mar-27 05:33N 44°14' E 008°32'1211.8
2015-Mar-27 04:33N 44°04' E 008°41'1110.6
2015-Mar-27 03:33N 43°55' E 008°48'1010.1
2015-Mar-27 02:33N 43°46' E 008°56'10 9.6
2015-Mar-27 01:33N 43°38' E 009°02'9 9.5
2015-Mar-27 00:33N 43°30' E 009°09'10 9.5
2015-Mar-26 23:33N 43°21' E 009°15'10 9.7
2015-Mar-26 22:33N 43°13' E 009°22'9 9.3
2015-Mar-26 21:33N 43°05' E 009°28'19 1.7
2015-Mar-26 10:19N 42°55' E 009°50'1316.0
2015-Mar-26 09:30N 43°06' E 009°60'1516.5
2015-Mar-26 08:34N 43°21' E 010°07'1413.7
2015-Mar-26 07:33N 43°32' E 010°17'1 0.9
2015-Mar-26 06:33N 43°33' E 010°18'1 0.7
2015-Mar-26 05:33N 43°33' E 010°17'1413.7
2015-Mar-26 04:34N 43°21' E 010°07'1915.4
2015-Mar-26 03:20N 43°02' E 010°05'4 0.1
2015-Mar-24 22:33N 42°58' E 010°02'1817.8
2015-Mar-24 21:33N 43°16' E 010°08'1716.7
2015-Mar-24 20:33N 43°32' E 010°15'3 2.6
2015-Mar-24 19:33N 43°33' E 010°18'0 0.0
2015-Mar-24 18:33N 43°33' E 010°18'2 1.5
2015-Mar-24 17:33N 43°32' E 010°17'1414.4
2015-Mar-24 16:34N 43°22' E 010°03'1615.4
2015-Mar-24 15:33N 43°11' E 009°48'31 2.2
2015-Mar-24 01:33N 43°26' E 009°10'1110.7
2015-Mar-24 00:33N 43°35' E 009°02'1111.1
2015-Mar-23 23:33N 43°45' E 008°55'1110.7
2015-Mar-23 22:33N 43°54' E 008°48'1110.6
2015-Mar-23 21:33N 44°03' E 008°41'1110.5
2015-Mar-23 20:32N 44°12' E 008°32'5 5.3
2015-Mar-23 19:31N 44°16' E 008°27'0 0.0
2015-Mar-23 18:29N 44°16' E 008°27'0 0.0
2015-Mar-23 17:28N 44°16' E 008°27'0 0.0
2015-Mar-23 16:29N 44°16' E 008°27'0 0.0
2015-Mar-23 15:33N 44°16' E 008°27'0 0.0
2015-Mar-23 14:33N 44°16' E 008°27'0 0.0
2015-Mar-23 13:33N 44°16' E 008°27'0 0.0
2015-Mar-23 12:33N 44°16' E 008°27'0 0.0
2015-Mar-23 11:33N 44°16' E 008°27'0 0.0
2015-Mar-23 10:33N 44°16' E 008°27'0 0.0
2015-Mar-23 09:33N 44°16' E 008°27'0 0.0
2015-Mar-23 08:32N 44°16' E 008°27'0 0.0
2015-Mar-23 07:33N 44°16' E 008°27'0 0.0
2015-Mar-23 06:32N 44°16' E 008°27'5 5.1
2015-Mar-23 05:33N 44°13' E 008°33'1211.8
2015-Mar-23 04:33N 44°03' E 008°41'1010.1
2015-Mar-23 03:33N 43°54' E 008°48'10 9.8
2015-Mar-23 02:33N 43°46' E 008°55'10 9.6
2015-Mar-23 01:33N 43°37' E 009°01'9 9.5
2015-Mar-23 00:33N 43°29' E 009°08'10 9.5
2015-Mar-22 23:33N 43°21' E 009°15'10 9.7
2015-Mar-22 22:33N 43°13' E 009°21'13 9.7
2015-Mar-22 21:15N 43°02' E 009°30'20 0.8
2015-Mar-21 21:15N 42°47' E 009°48'  
Track history (hours):
 
Tides and Currents Weather Stations Pressure Air Temp Water Temp Dewpoint Dewpoint Depression Visibility Wind Speed Wind Dir Waves Ship Positions

Sardinia Regina

Last reported at 2015-Mar-31 07:33 UTC. Time now 2015-Mar-31 08:27 UTC.
Position N 42°59' E 009°38'.

Length 146 m; draft 5 m.

Type: Ship (hazmat cat D). MMSI: 247079000.

Date/timePositionNaut miles runAvg speedWind from/ knotsBaromVisibWave heightAir tempDewpointWater temp
2015-Mar-31 07:33N 42°59' E 009°38'19 3.1
2015-Mar-31 01:11N 43°19' E 009°38'710.9
2015-Mar-31 00:33N 43°25' E 009°38'1111.5
2015-Mar-30 23:33N 43°36' E 009°32'1514.6
2015-Mar-30 22:34N 43°49' E 009°24'1515.0
2015-Mar-30 21:34N 43°58' E 009°06'1515.2
2015-Mar-30 20:34N 44°07' E 008°49'1313.1
2015-Mar-30 19:33N 44°13' E 008°34'5 5.3
2015-Mar-30 18:33N 44°16' E 008°27'0 0.0
2015-Mar-30 17:33N 44°16' E 008°27'0 0.0
2015-Mar-30 16:33N 44°16' E 008°27'0 0.0
2015-Mar-30 15:33N 44°16' E 008°27'0 0.0
2015-Mar-30 14:33N 44°16' E 008°27'0 0.0
2015-Mar-30 13:33N 44°16' E 008°27'0 0.0
2015-Mar-30 12:33N 44°16' E 008°27'0 0.0
2015-Mar-30 11:33N 44°16' E 008°27'0 0.0
2015-Mar-30 10:33N 44°16' E 008°27'0 0.0
2015-Mar-30 09:33N 44°16' E 008°27'0 0.0
2015-Mar-30 08:33N 44°16' E 008°27'0 0.0
2015-Mar-30 07:33N 44°16' E 008°27'0 0.0
2015-Mar-30 06:33N 44°16' E 008°27'0 0.0
2015-Mar-30 05:33N 44°16' E 008°27'0 0.0
2015-Mar-30 04:33N 44°16' E 008°27'0 0.0
2015-Mar-30 03:33N 44°16' E 008°27'0 0.0
2015-Mar-30 02:33N 44°16' E 008°27'0 0.0
2015-Mar-30 01:33N 44°16' E 008°27'0 0.0
2015-Mar-30 00:33N 44°16' E 008°27'0 0.0
2015-Mar-29 23:33N 44°16' E 008°27'0 0.0
2015-Mar-29 22:33N 44°16' E 008°27'0 0.0
2015-Mar-29 21:33N 44°16' E 008°27'0 0.0
2015-Mar-29 20:33N 44°16' E 008°27'0 0.0
2015-Mar-29 19:33N 44°16' E 008°27'0 0.0
2015-Mar-29 18:33N 44°16' E 008°27'0 0.0
2015-Mar-29 17:33N 44°16' E 008°27'10 9.6
2015-Mar-29 16:33N 44°09' E 008°37'1918.8
2015-Mar-29 15:33N 43°53' E 008°50'1818.0
2015-Mar-29 14:33N 43°37' E 009°02'1817.9
2015-Mar-29 13:33N 43°22' E 009°14'1818.0
2015-Mar-29 12:33N 43°06' E 009°26'1818.0
2015-Mar-29 11:32N 42°48' E 009°33'26 0.8
2015-Mar-28 03:33N 43°13' E 009°21'1010.0
2015-Mar-28 02:33N 43°21' E 009°14'10 9.8
2015-Mar-28 01:33N 43°30' E 009°07'1010.0
2015-Mar-28 00:33N 43°39' E 009°00'10 9.6
2015-Mar-27 23:33N 43°47' E 008°54'9 9.3
2015-Mar-27 22:33N 43°55' E 008°47'10 9.7
2015-Mar-27 21:33N 44°03' E 008°41'1110.7
2015-Mar-27 20:33N 44°12' E 008°32'5 5.3
2015-Mar-27 19:33N 44°16' E 008°27'0 0.0
2015-Mar-27 18:33N 44°16' E 008°27'0 0.0
2015-Mar-27 17:28N 44°16' E 008°27'0 0.0
2015-Mar-27 16:28N 44°16' E 008°27'0 0.0
2015-Mar-27 15:28N 44°16' E 008°27'0 0.0
2015-Mar-27 14:28N 44°16' E 008°27'0 0.0
2015-Mar-27 13:22N 44°16' E 008°27'0 0.0
2015-Mar-27 12:28N 44°16' E 008°27'0 0.0
2015-Mar-27 11:31N 44°16' E 008°27'0 0.0
2015-Mar-27 10:31N 44°16' E 008°27'0 0.0
2015-Mar-27 09:28N 44°16' E 008°27'0 0.0
2015-Mar-27 08:28N 44°16' E 008°27'0 0.0
2015-Mar-27 07:33N 44°16' E 008°27'0 0.0
2015-Mar-27 06:33N 44°16' E 008°27'4 4.3
2015-Mar-27 05:33N 44°14' E 008°32'1211.8
2015-Mar-27 04:33N 44°04' E 008°41'1110.6
2015-Mar-27 03:33N 43°55' E 008°48'1010.1
2015-Mar-27 02:33N 43°46' E 008°56'10 9.6
2015-Mar-27 01:33N 43°38' E 009°02'9 9.5
2015-Mar-27 00:33N 43°30' E 009°09'10 9.5
2015-Mar-26 23:33N 43°21' E 009°15'10 9.7
2015-Mar-26 22:33N 43°13' E 009°22'9 9.3
2015-Mar-26 21:33N 43°05' E 009°28'19 1.7
2015-Mar-26 10:19N 42°55' E 009°50'1316.0
2015-Mar-26 09:30N 43°06' E 009°60'1516.5
2015-Mar-26 08:34N 43°21' E 010°07'1413.7
2015-Mar-26 07:33N 43°32' E 010°17'1 0.9
2015-Mar-26 06:33N 43°33' E 010°18'1 0.7
2015-Mar-26 05:33N 43°33' E 010°17'1413.7
2015-Mar-26 04:34N 43°21' E 010°07'1915.4
2015-Mar-26 03:20N 43°02' E 010°05'4 0.1
2015-Mar-24 22:33N 42°58' E 010°02'1817.8
2015-Mar-24 21:33N 43°16' E 010°08'1716.7
2015-Mar-24 20:33N 43°32' E 010°15'3 2.6
2015-Mar-24 19:33N 43°33' E 010°18'0 0.0
2015-Mar-24 18:33N 43°33' E 010°18'2 1.5
2015-Mar-24 17:33N 43°32' E 010°17'1414.4
2015-Mar-24 16:34N 43°22' E 010°03'1615.4
2015-Mar-24 15:33N 43°11' E 009°48'31 2.2
2015-Mar-24 01:33N 43°26' E 009°10'1110.7
2015-Mar-24 00:33N 43°35' E 009°02'1111.1
2015-Mar-23 23:33N 43°45' E 008°55'1110.7
2015-Mar-23 22:33N 43°54' E 008°48'1110.6
2015-Mar-23 21:33N 44°03' E 008°41'1110.5
2015-Mar-23 20:32N 44°12' E 008°32'5 5.3
2015-Mar-23 19:31N 44°16' E 008°27'0 0.0
2015-Mar-23 18:29N 44°16' E 008°27'0 0.0
2015-Mar-23 17:28N 44°16' E 008°27'0 0.0
2015-Mar-23 16:29N 44°16' E 008°27'0 0.0
2015-Mar-23 15:33N 44°16' E 008°27'0 0.0
2015-Mar-23 14:33N 44°16' E 008°27'0 0.0
2015-Mar-23 13:33N 44°16' E 008°27'0 0.0
2015-Mar-23 12:33N 44°16' E 008°27'0 0.0
2015-Mar-23 11:33N 44°16' E 008°27'0 0.0
2015-Mar-23 10:33N 44°16' E 008°27'0 0.0
2015-Mar-23 09:33N 44°16' E 008°27'0 0.0
2015-Mar-23 08:32N 44°16' E 008°27'0 0.0
2015-Mar-23 07:33N 44°16' E 008°27'0 0.0
2015-Mar-23 06:32N 44°16' E 008°27'5 5.1
2015-Mar-23 05:33N 44°13' E 008°33'1211.8
2015-Mar-23 04:33N 44°03' E 008°41'1010.1
2015-Mar-23 03:33N 43°54' E 008°48'10 9.8
2015-Mar-23 02:33N 43°46' E 008°55'10 9.6
2015-Mar-23 01:33N 43°37' E 009°01'9 9.5
2015-Mar-23 00:33N 43°29' E 009°08'10 9.5
2015-Mar-22 23:33N 43°21' E 009°15'10 9.7
2015-Mar-22 22:33N 43°13' E 009°21'13 9.7
2015-Mar-22 21:15N 43°02' E 009°30'20 0.8
2015-Mar-21 21:15N 42°47' E 009°48'  

Dump ship's entire track history